createdAt,value
2022-08-03T00:00:39.758Z,3.70
2022-08-03T00:03:08.148Z,2.97
2022-08-03T00:05:36.313Z,3.10
2022-08-03T00:08:05.178Z,3.53
2022-08-03T00:10:37.086Z,4.05
2022-08-03T00:13:05.994Z,2.70
2022-08-03T00:15:35.698Z,3.08
2022-08-03T00:18:03.979Z,2.88
2022-08-03T00:20:32.324Z,2.65
2022-08-03T00:23:00.799Z,2.58
2022-08-03T00:25:29.184Z,2.95
2022-08-03T00:27:59.164Z,2.42
2022-08-03T00:30:30.821Z,3.30
2022-08-03T00:32:59.682Z,3.00
2022-08-03T00:35:36.858Z,2.75
2022-08-03T00:38:17.031Z,3.15
2022-08-03T00:40:46.198Z,2.80
2022-08-03T00:43:15.972Z,2.70
2022-08-03T00:45:45.221Z,3.00
2022-08-03T00:48:29.432Z,2.60
2022-08-03T00:51:00.648Z,2.90
2022-08-03T00:53:29.925Z,2.60
2022-08-03T00:55:58.262Z,2.97
2022-08-03T00:58:27.938Z,3.00
2022-08-03T01:00:56.290Z,2.80
2022-08-03T01:03:24.777Z,2.80
2022-08-03T01:05:59.837Z,2.85
2022-08-03T01:08:39.779Z,2.80
2022-08-03T01:11:14.657Z,2.97
2022-08-03T01:14:01.411Z,2.85
2022-08-03T01:16:38.866Z,2.70
2022-08-03T01:19:34.409Z,3.38
2022-08-03T01:22:17.594Z,2.70
2022-08-03T01:24:57.330Z,2.90
2022-08-03T01:27:42.443Z,2.88
2022-08-03T01:30:13.325Z,2.65
2022-08-03T01:33:02.425Z,2.50
2022-08-03T01:35:38.854Z,2.72
2022-08-03T01:38:13.104Z,3.08
2022-08-03T01:40:42.834Z,2.58
2022-08-03T01:43:14.393Z,2.78
2022-08-03T01:45:46.681Z,2.97
2022-08-03T01:48:18.903Z,3.13
2022-08-03T01:50:48.759Z,2.97
2022-08-03T01:53:18.628Z,2.63
2022-08-03T01:55:50.135Z,3.00
2022-08-03T01:58:20.427Z,2.90
2022-08-03T02:00:51.129Z,2.88
2022-08-03T02:03:21.925Z,3.03
2022-08-03T02:06:11.502Z,3.25
2022-08-03T02:08:42.296Z,3.35
2022-08-03T02:11:10.624Z,3.40
2022-08-03T02:13:39.909Z,3.00
2022-08-03T02:16:10.577Z,3.30
2022-08-03T02:18:41.438Z,3.58
2022-08-03T02:21:11.761Z,3.00
2022-08-03T02:24:01.275Z,2.92
2022-08-03T02:26:32.111Z,3.20
2022-08-03T02:29:04.573Z,2.78
2022-08-03T02:31:38.519Z,3.03
2022-08-03T02:34:11.465Z,2.80
2022-08-03T02:36:40.770Z,2.95
2022-08-03T02:39:12.617Z,2.67
2022-08-03T02:41:45.072Z,2.95
2022-08-03T02:44:15.995Z,3.05
2022-08-03T02:46:49.457Z,3.47
2022-08-03T02:49:41.396Z,3.10
2022-08-03T02:52:12.613Z,3.33
2022-08-03T02:54:45.577Z,3.27
2022-08-03T02:57:15.892Z,3.30
2022-08-03T02:59:45.517Z,3.40
2022-08-03T03:02:17.215Z,3.13
2022-08-03T03:05:51.619Z,3.20
2022-08-03T03:07:51.413Z,3.50
2022-08-03T03:10:23.098Z,3.43
2022-08-03T03:12:53.916Z,3.83
2022-08-03T03:15:22.586Z,3.80
2022-08-03T03:17:55.142Z,3.23
2022-08-03T03:20:26.757Z,3.50
2022-08-03T03:23:00.570Z,3.10
2022-08-03T03:25:30.180Z,3.07
2022-08-03T03:27:58.951Z,3.30
2022-08-03T03:30:28.312Z,3.20
2022-08-03T03:32:59.474Z,2.70
2022-08-03T03:35:28.768Z,2.93
2022-08-03T03:37:57.082Z,2.77
2022-08-03T03:40:25.348Z,2.67
2022-08-03T03:42:53.823Z,3.00
2022-08-03T03:45:23.510Z,3.00
2022-08-03T03:47:52.048Z,3.00
2022-08-03T03:50:23.698Z,2.73
2022-08-03T03:52:51.829Z,3.30
2022-08-03T03:55:20.538Z,3.00
2022-08-03T03:57:48.667Z,3.07
2022-08-03T04:00:18.691Z,2.93
2022-08-03T04:02:47.184Z,2.93
2022-08-03T04:05:33.011Z,3.30
2022-08-03T04:08:22.065Z,3.03
2022-08-03T04:11:00.378Z,2.83
2022-08-03T04:13:33.485Z,3.33
2022-08-03T04:16:02.622Z,3.40
2022-08-03T04:18:34.295Z,3.10
2022-08-03T04:21:05.273Z,3.17
2022-08-03T04:23:37.288Z,3.37
2022-08-03T04:26:06.704Z,3.10
2022-08-03T04:28:36.418Z,3.43
2022-08-03T04:31:05.958Z,3.53
2022-08-03T04:33:35.901Z,3.30
2022-08-03T04:36:08.283Z,3.23
2022-08-03T04:38:45.554Z,3.10
2022-08-03T04:41:15.548Z,3.20
2022-08-03T04:43:46.083Z,3.10
2022-08-03T04:46:15.704Z,3.50
2022-08-03T04:48:45.313Z,3.20
2022-08-03T04:51:14.895Z,3.50
2022-08-03T04:53:44.939Z,3.30
2022-08-03T04:56:13.273Z,3.60
2022-08-03T04:58:41.538Z,3.37
2022-08-03T05:01:09.843Z,2.90
2022-08-03T05:03:38.601Z,3.30
2022-08-03T05:06:10.990Z,3.03
2022-08-03T05:08:45.934Z,3.00
2022-08-03T05:11:17.118Z,2.90
2022-08-03T05:13:45.603Z,3.20
2022-08-03T05:16:14.998Z,3.50
2022-08-03T05:18:44.244Z,3.20
2022-08-03T05:21:14.203Z,3.47
2022-08-03T05:23:42.694Z,3.45
2022-08-03T05:26:11.903Z,3.40
2022-08-03T05:28:50.772Z,3.13
2022-08-03T05:31:20.499Z,3.38
2022-08-03T05:33:49.196Z,3.80
2022-08-03T05:36:17.504Z,3.00
2022-08-03T05:38:46.097Z,3.00
2022-08-03T05:41:23.556Z,2.80
2022-08-03T05:44:04.280Z,2.97
2022-08-03T05:46:32.454Z,3.30
2022-08-03T05:49:00.896Z,2.78
2022-08-03T05:51:29.154Z,3.17
2022-08-03T05:53:57.321Z,3.05
2022-08-03T05:56:26.750Z,3.28
2022-08-03T05:58:55.186Z,3.10
2022-08-03T06:01:25.180Z,2.70
2022-08-03T06:03:55.012Z,2.92
2022-08-03T06:06:23.617Z,3.03
2022-08-03T06:08:51.815Z,2.90
2022-08-03T06:11:20.397Z,2.70
2022-08-03T06:13:48.717Z,2.78
2022-08-03T06:16:17.170Z,2.33
2022-08-03T06:18:54.755Z,2.20
2022-08-03T06:21:23.320Z,2.60
2022-08-03T06:23:56.271Z,2.58
2022-08-03T06:26:32.001Z,2.65
2022-08-03T06:29:03.954Z,2.75
2022-08-03T06:31:33.815Z,2.83
2022-08-03T06:34:33.480Z,2.42
2022-08-03T06:36:58.548Z,2.90
2022-08-03T06:39:29.969Z,2.40
2022-08-03T06:41:58.296Z,2.80
2022-08-03T06:44:27.710Z,2.60
2022-08-03T06:46:56.002Z,2.80
2022-08-03T06:49:26.777Z,2.47
2022-08-03T06:52:03.717Z,2.67
2022-08-03T06:54:35.706Z,2.80
2022-08-03T06:57:04.334Z,2.60
2022-08-03T07:00:09.958Z,2.28
2022-08-03T07:02:21.245Z,2.35
2022-08-03T07:04:52.324Z,2.08
2022-08-03T07:07:21.270Z,2.20
2022-08-03T07:09:57.406Z,2.35
2022-08-03T07:12:29.241Z,2.08
2022-08-03T07:15:01.129Z,1.70
2022-08-03T07:17:31.667Z,1.95
2022-08-03T07:20:02.182Z,2.10
2022-08-03T07:22:30.693Z,1.90
2022-08-03T07:24:59.002Z,1.70
2022-08-03T07:27:29.505Z,1.75
2022-08-03T07:29:59.244Z,1.60
2022-08-03T07:32:31.704Z,2.00
2022-08-03T07:35:01.840Z,1.60
2022-08-03T07:37:30.702Z,1.67
2022-08-03T07:39:59.308Z,1.58
2022-08-03T07:42:27.496Z,1.95
2022-08-03T07:44:56.461Z,1.70
2022-08-03T07:47:35.571Z,1.70
2022-08-03T07:50:08.769Z,1.75
2022-08-03T07:52:49.656Z,1.85
2022-08-03T07:55:19.213Z,1.90
2022-08-03T07:57:47.499Z,1.80
2022-08-03T08:00:18.395Z,1.73
2022-08-03T08:02:47.320Z,2.00
2022-08-03T08:05:17.091Z,1.92
2022-08-03T08:07:51.604Z,1.80
2022-08-03T08:10:20.718Z,1.58
2022-08-03T08:12:49.629Z,1.63
2022-08-03T08:15:18.998Z,1.90
2022-08-03T08:17:49.557Z,2.10
2022-08-03T08:20:28.548Z,1.38
2022-08-03T08:23:02.033Z,2.00
2022-08-03T08:25:31.983Z,1.70
2022-08-03T08:28:29.191Z,1.83
2022-08-03T08:30:51.391Z,2.20
2022-08-03T08:33:23.049Z,1.90
2022-08-03T08:35:55.010Z,1.85
2022-08-03T08:38:23.939Z,2.05
2022-08-03T08:40:52.745Z,1.70
2022-08-03T08:43:21.098Z,1.77
2022-08-03T08:45:51.815Z,1.80
2022-08-03T08:48:24.764Z,1.90
2022-08-03T08:50:57.125Z,1.90
2022-08-03T08:53:29.502Z,1.83
2022-08-03T08:56:01.714Z,1.80
2022-08-03T08:58:32.726Z,1.80
2022-08-03T09:01:01.107Z,1.70
2022-08-03T09:03:30.800Z,1.58
2022-08-03T09:06:03.369Z,1.80
2022-08-03T09:08:32.552Z,1.67
2022-08-03T09:11:01.598Z,1.70
2022-08-03T09:13:30.692Z,1.90
2022-08-03T09:16:13.377Z,1.80
2022-08-03T09:18:42.562Z,1.98
2022-08-03T09:21:34.184Z,1.80
2022-08-03T09:24:06.497Z,1.67
2022-08-03T09:26:39.383Z,2.00
2022-08-03T09:29:14.926Z,1.83
2022-08-03T09:31:47.079Z,2.22
2022-08-03T09:34:17.615Z,1.80
2022-08-03T09:36:48.751Z,1.90
2022-08-03T09:39:18.029Z,1.85
2022-08-03T09:41:48.837Z,2.33
2022-08-03T09:44:25.670Z,1.95
2022-08-03T09:46:57.325Z,1.95
2022-08-03T09:49:27.750Z,1.90
2022-08-03T09:52:33.932Z,1.90
2022-08-03T09:54:54.178Z,1.63
2022-08-03T09:57:24.238Z,1.90
2022-08-03T10:00:02.936Z,2.00
2022-08-03T10:02:34.667Z,1.95
2022-08-03T10:05:03.187Z,1.85
2022-08-03T10:07:46.124Z,2.10
2022-08-03T10:10:29.878Z,1.80
2022-08-03T10:13:01.517Z,1.80
2022-08-03T10:16:25.303Z,1.67
2022-08-03T10:18:18.789Z,2.03
2022-08-03T10:20:56.884Z,1.85
2022-08-03T10:23:28.710Z,2.05
2022-08-03T10:26:04.947Z,1.88
2022-08-03T10:28:40.376Z,2.10
2022-08-03T10:31:14.631Z,2.00
2022-08-03T10:33:49.518Z,1.88
2022-08-03T10:36:24.700Z,2.00
2022-08-03T10:38:57.370Z,1.83
2022-08-03T10:41:33.450Z,1.75
2022-08-03T10:44:06.761Z,1.95
2022-08-03T10:46:38.361Z,1.83
2022-08-03T10:49:10.729Z,1.75
2022-08-03T10:51:39.803Z,1.80
2022-08-03T10:54:11.994Z,1.60
2022-08-03T10:57:04.131Z,1.88
2022-08-03T11:00:03.976Z,1.70
2022-08-03T11:03:04.466Z,3.30
2022-08-03T11:05:34.610Z,1.63
2022-08-03T11:08:25.932Z,1.83
2022-08-03T11:11:02.152Z,2.05
2022-08-03T11:13:34.086Z,2.20
2022-08-03T11:16:07.753Z,2.92
2022-08-03T11:18:38.028Z,1.88
2022-08-03T11:21:07.278Z,2.00
2022-08-03T11:24:05.459Z,4.20
2022-08-03T11:26:34.741Z,1.52
2022-08-03T11:29:29.383Z,1.65
2022-08-03T11:31:58.154Z,1.75
2022-08-03T11:34:27.919Z,2.05
2022-08-03T11:37:28.768Z,1.67
2022-08-03T11:39:59.981Z,1.88
2022-08-03T11:42:47.166Z,1.80
2022-08-03T11:45:15.711Z,2.33
2022-08-03T11:47:50.550Z,2.10
2022-08-03T11:50:20.341Z,1.63
2022-08-03T11:52:51.029Z,1.90
2022-08-03T11:55:22.276Z,2.00
2022-08-03T11:59:00.955Z,1.80
2022-08-03T12:00:41.043Z,1.65
2022-08-03T12:03:13.904Z,1.80
2022-08-03T12:05:51.932Z,1.90
2022-08-03T12:08:32.377Z,1.90
2022-08-03T12:11:03.157Z,1.70
2022-08-03T12:14:45.748Z,1.70
2022-08-03T12:16:32.624Z,1.90
2022-08-03T12:19:03.002Z,1.80
2022-08-03T12:21:31.776Z,1.80
2022-08-03T12:24:01.247Z,1.80
2022-08-03T12:26:30.035Z,1.67
2022-08-03T12:28:59.636Z,1.85
2022-08-03T12:31:27.831Z,1.80
2022-08-03T12:33:59.141Z,1.70
2022-08-03T12:36:28.579Z,1.70
2022-08-03T12:38:57.987Z,1.73
2022-08-03T12:41:31.034Z,1.92
2022-08-03T12:44:03.480Z,1.70
2022-08-03T12:46:33.837Z,1.88
2022-08-03T12:49:12.712Z,1.75
2022-08-03T12:52:01.737Z,1.90
2022-08-03T12:54:34.093Z,1.80
2022-08-03T12:57:04.609Z,1.98
2022-08-03T12:59:40.545Z,2.03
2022-08-03T13:02:17.716Z,1.83
2022-08-03T13:04:47.970Z,2.00
2022-08-03T13:07:18.365Z,1.83
2022-08-03T13:09:49.669Z,2.00
2022-08-03T13:12:20.930Z,2.13
2022-08-03T13:14:53.384Z,1.65
2022-08-03T13:17:22.000Z,1.80
2022-08-03T13:19:51.723Z,2.15
2022-08-03T13:22:21.462Z,1.70
2022-08-03T13:24:51.670Z,1.73
2022-08-03T13:28:01.698Z,1.65
2022-08-03T13:30:12.052Z,1.65
2022-08-03T13:32:40.291Z,1.92
2022-08-03T13:35:09.434Z,2.28
2022-08-03T13:37:39.061Z,1.85
2022-08-03T13:40:11.785Z,2.13
2022-08-03T13:42:42.929Z,1.80
2022-08-03T13:45:12.805Z,1.80
2022-08-03T13:47:41.047Z,1.70
2022-08-03T13:50:10.133Z,1.83
2022-08-03T13:52:38.428Z,1.55
2022-08-03T13:55:08.653Z,1.90
2022-08-03T13:58:03.675Z,1.45
2022-08-03T14:00:29.533Z,1.60
2022-08-03T14:03:06.739Z,1.80
2022-08-03T14:05:41.147Z,1.60
2022-08-03T14:08:09.851Z,1.52
2022-08-03T14:10:40.555Z,1.50
2022-08-03T14:13:09.673Z,1.70
2022-08-03T14:15:39.461Z,1.70
2022-08-03T14:18:12.857Z,1.77
2022-08-03T14:20:50.005Z,1.70
2022-08-03T14:23:19.840Z,1.70
2022-08-03T14:25:51.596Z,1.58
2022-08-03T14:28:22.771Z,1.60
2022-08-03T14:30:56.097Z,1.60
2022-08-03T14:33:24.791Z,1.63
2022-08-03T14:35:53.817Z,1.63
2022-08-03T14:38:24.253Z,2.20
2022-08-03T14:40:53.241Z,1.70
2022-08-03T14:43:22.873Z,1.45
2022-08-03T14:45:53.101Z,1.50
2022-08-03T14:50:30.652Z,1.38
2022-08-03T14:51:15.810Z,1.67
2022-08-03T14:53:46.390Z,1.45
2022-08-03T14:56:14.768Z,1.70
2022-08-03T14:58:42.931Z,1.60
2022-08-03T15:02:02.407Z,1.67
2022-08-03T15:04:02.275Z,1.45
2022-08-03T15:06:30.470Z,2.30
2022-08-03T15:09:23.736Z,1.67
2022-08-03T15:11:47.357Z,1.67
2022-08-03T15:14:15.798Z,1.55
2022-08-03T15:16:44.168Z,1.50
2022-08-03T15:20:00.341Z,1.67
2022-08-03T15:22:02.116Z,1.45
2022-08-03T15:24:30.832Z,1.40
2022-08-03T15:26:59.206Z,1.70
2022-08-03T15:30:05.990Z,1.83
2022-08-03T15:32:16.240Z,1.40
2022-08-03T15:34:50.042Z,1.60
2022-08-03T15:37:19.100Z,1.73
2022-08-03T15:39:58.902Z,1.60
2022-08-03T15:42:29.690Z,1.60
2022-08-03T15:44:57.893Z,1.55
2022-08-03T15:47:26.559Z,2.20
2022-08-03T15:49:56.424Z,2.00
2022-08-03T15:52:24.754Z,1.70
2022-08-03T15:54:52.826Z,1.98
2022-08-03T15:57:22.315Z,1.60
2022-08-03T15:59:50.884Z,1.90
2022-08-03T16:02:19.317Z,1.67
2022-08-03T16:04:47.793Z,1.77
2022-08-03T16:07:38.174Z,1.73
2022-08-03T16:10:06.887Z,2.00
2022-08-03T16:12:35.576Z,1.67
2022-08-03T16:15:05.011Z,1.73
2022-08-03T16:17:33.460Z,2.00
2022-08-03T16:20:04.165Z,2.35
2022-08-03T16:22:45.655Z,1.85
2022-08-03T16:25:16.801Z,1.70
2022-08-03T16:28:03.310Z,2.20
2022-08-03T16:30:35.090Z,2.38
2022-08-03T16:33:03.810Z,3.22
2022-08-03T16:35:32.153Z,1.80
2022-08-03T16:38:05.336Z,1.92
2022-08-03T16:40:37.717Z,2.17
2022-08-03T16:43:17.820Z,2.03
2022-08-03T16:45:48.765Z,2.00
2022-08-03T16:48:17.309Z,1.60
2022-08-03T16:50:45.845Z,2.28
2022-08-03T16:53:17.245Z,2.20
2022-08-03T16:55:52.317Z,3.15
2022-08-03T16:58:34.303Z,1.65
2022-08-03T17:01:06.430Z,2.05
2022-08-03T17:04:01.621Z,2.00
2022-08-03T17:06:34.363Z,2.20
2022-08-03T17:09:09.238Z,2.10
2022-08-03T17:11:43.913Z,2.03
2022-08-03T17:14:16.399Z,2.17
2022-08-03T17:16:52.690Z,2.40
2022-08-03T17:19:25.024Z,1.65
2022-08-03T17:22:01.178Z,2.10
2022-08-03T17:24:40.860Z,2.00
2022-08-03T17:28:41.393Z,1.83
2022-08-03T17:30:07.580Z,2.15
2022-08-03T17:32:42.693Z,1.73
2022-08-03T17:35:12.261Z,1.67
2022-08-03T17:37:57.677Z,1.80
2022-08-03T17:40:34.211Z,2.38
2022-08-03T17:44:13.937Z,1.92
2022-08-03T17:45:54.831Z,1.70
2022-08-03T17:48:25.245Z,2.20
2022-08-03T17:51:00.287Z,2.10
2022-08-03T17:53:32.034Z,1.80
2022-08-03T17:56:44.507Z,1.85
2022-08-03T17:59:09.165Z,1.77
2022-08-03T18:02:08.068Z,2.10
2022-08-03T18:04:55.365Z,2.40
2022-08-03T18:07:41.179Z,2.03
2022-08-03T18:10:15.116Z,1.90
2022-08-03T18:12:52.380Z,2.17
2022-08-03T18:15:30.618Z,1.98
2022-08-03T18:18:10.682Z,1.60
2022-08-03T18:20:42.031Z,2.08
2022-08-03T18:23:24.957Z,2.10
2022-08-03T18:26:01.983Z,2.00
2022-08-03T18:28:32.493Z,1.90
2022-08-03T18:31:05.713Z,2.08
2022-08-03T18:34:16.272Z,1.92
2022-08-03T18:36:31.115Z,2.08
2022-08-03T18:39:03.148Z,2.22
2022-08-03T18:41:34.819Z,2.00
2022-08-03T18:44:09.448Z,1.92
2022-08-03T18:47:16.630Z,1.95
2022-08-03T18:49:54.609Z,1.90
2022-08-03T18:52:27.990Z,1.83
2022-08-03T18:55:20.584Z,2.40
2022-08-03T18:58:01.163Z,3.30
2022-08-03T19:00:54.453Z,5.15
2022-08-03T19:03:41.244Z,4.00
2022-08-03T19:06:20.471Z,2.20
2022-08-03T19:08:55.809Z,2.53
2022-08-03T19:12:10.980Z,2.00
2022-08-03T19:14:28.635Z,1.90
2022-08-03T19:17:06.567Z,2.17
2022-08-03T19:19:43.365Z,2.35
2022-08-03T19:22:15.917Z,2.55
2022-08-03T19:24:47.904Z,2.53
2022-08-03T19:27:16.797Z,2.08
2022-08-03T19:30:00.476Z,2.50
2022-08-03T19:32:33.384Z,2.55
2022-08-03T19:35:03.598Z,2.58
2022-08-03T19:37:39.860Z,2.50
2022-08-03T19:40:10.255Z,2.72
2022-08-03T19:42:47.770Z,2.80
2022-08-03T19:45:22.566Z,3.03
2022-08-03T19:48:15.090Z,2.60
2022-08-03T19:50:44.734Z,2.63
2022-08-03T19:53:15.368Z,2.47
2022-08-03T19:55:48.777Z,2.58
2022-08-03T19:58:24.522Z,2.10
2022-08-03T20:00:57.593Z,2.40
2022-08-03T20:06:22.144Z,2.45
2022-08-03T20:08:51.772Z,2.10
2022-08-03T20:11:28.689Z,2.10
2022-08-03T20:13:59.060Z,2.17
2022-08-03T20:16:27.514Z,2.30
2022-08-03T20:18:57.467Z,2.40
2022-08-03T20:21:32.353Z,2.30
2022-08-03T20:24:23.811Z,2.47
2022-08-03T20:26:56.664Z,2.10
2022-08-03T20:29:42.636Z,2.30
2022-08-03T20:32:24.647Z,2.50
2022-08-03T20:34:54.913Z,2.35
2022-08-03T20:37:23.638Z,2.10
2022-08-03T20:39:52.124Z,2.40
2022-08-03T20:42:21.945Z,2.15
2022-08-03T20:45:05.243Z,2.33
2022-08-03T20:47:36.495Z,2.60
2022-08-03T20:50:12.346Z,2.42
2022-08-03T20:52:49.411Z,2.80
2022-08-03T20:55:20.503Z,2.40
2022-08-03T20:58:08.649Z,2.70
2022-08-03T21:00:36.818Z,2.53
2022-08-03T21:03:06.992Z,2.33
2022-08-03T21:05:51.355Z,2.60
2022-08-03T21:08:22.817Z,2.78
2022-08-03T21:10:53.132Z,2.53
2022-08-03T21:13:08.944Z,2.22
2022-08-03T21:13:26.060Z,2.40
2022-08-03T21:16:11.231Z,2.30
2022-08-03T21:18:47.716Z,2.17
2022-08-03T21:21:20.247Z,2.42
2022-08-03T21:23:52.858Z,3.10
2022-08-03T21:26:23.181Z,4.68
2022-08-03T21:28:53.935Z,2.80
2022-08-03T21:31:25.908Z,3.58
2022-08-03T21:33:57.172Z,3.88
2022-08-03T21:36:28.840Z,2.80
2022-08-03T21:38:57.987Z,3.05
2022-08-03T21:41:27.627Z,2.65
2022-08-03T21:43:56.047Z,2.50
2022-08-03T21:46:25.113Z,2.63
2022-08-03T21:50:05.455Z,3.05
2022-08-03T21:51:51.356Z,2.45
2022-08-03T21:54:22.064Z,2.50
2022-08-03T21:56:55.238Z,2.22
2022-08-03T21:59:25.190Z,3.00
2022-08-03T22:01:58.569Z,2.90
2022-08-03T22:04:50.723Z,3.20
2022-08-03T22:07:18.550Z,2.70
2022-08-03T22:09:51.205Z,3.00
2022-08-03T22:12:24.820Z,2.53
2022-08-03T22:15:00.943Z,2.35
2022-08-03T22:17:56.228Z,2.47
2022-08-03T22:20:21.556Z,2.50
2022-08-03T22:22:56.552Z,2.67
2022-08-03T22:25:30.826Z,2.78
2022-08-03T22:28:00.765Z,2.90
2022-08-03T22:30:29.190Z,2.80
2022-08-03T22:32:58.265Z,3.13
2022-08-03T22:35:28.047Z,2.83
2022-08-03T22:38:00.290Z,2.78
2022-08-03T22:40:29.153Z,2.83
2022-08-03T22:42:59.162Z,2.83
2022-08-03T22:46:07.218Z,3.10
2022-08-03T22:48:18.107Z,2.88
2022-08-03T22:50:49.194Z,2.88
2022-08-03T22:53:21.488Z,2.83
2022-08-03T22:55:53.407Z,2.80
2022-08-03T22:58:22.236Z,2.70
2022-08-03T23:00:54.619Z,2.80
2022-08-03T23:04:00.686Z,3.00
2022-08-03T23:06:20.975Z,2.50
2022-08-03T23:08:52.009Z,2.50
2022-08-03T23:11:21.590Z,3.15
2022-08-03T23:13:54.092Z,2.70
2022-08-03T23:16:28.944Z,2.67
2022-08-03T23:18:59.616Z,2.63
2022-08-03T23:21:53.721Z,2.78
2022-08-03T23:24:29.422Z,2.53
2022-08-03T23:26:59.135Z,2.55
2022-08-03T23:29:30.238Z,2.38
2022-08-03T23:31:59.806Z,2.55
2022-08-03T23:34:46.667Z,2.40
2022-08-03T23:37:16.080Z,2.17
2022-08-03T23:39:48.055Z,2.30
2022-08-03T23:42:19.116Z,2.38
2022-08-03T23:44:48.222Z,2.28
2022-08-03T23:47:16.274Z,2.58
2022-08-03T23:49:44.805Z,2.40
2022-08-03T23:52:21.885Z,2.40
2022-08-03T23:55:05.381Z,2.47
2022-08-03T23:57:44.528Z,2.42
